Lena, Louisiana
Current Conditions -  °F | °C
As of 6:53 AM on Sunday 28 Dec 2014 (Local Time) from KAEX Reporting Station
Overcast Overcast  
Wind Chill: 45°   Ceiling: 700
Heat Index: 49°   Visibility: 10mi
Dew Point: 48°   Wind: 8mph
Humidity: 97%   Direction: 320°NW
Pressure: 30.15"   Gusts: NA
Location:  31.46°N, 92.77°W
Report Text: KAEX 281253Z 32007KT 10SM OVC007 09/09 A3015 RMK AO2 SLP214 T00940089
Loading
Personal Weather Stations






























Interactive Weather Map New forecast layout! Learn more

10-Day Weather Forecast

Advertisements
Track Severe Weather on mobile